This is the latest recevied weather packets stored in our database for station/object AG1T-20. If no packets are shown the sender has not sent any weather packets the latest 10 day(s).
| Time | Temp. | Humidity | Pressure | Rain* | Wind** | Luminosity | Snow |
|---|---|---|---|---|---|---|---|
| 1788585005 | 26.11° C | 23% | 1018.2 hPa | 0 mm | - | 0 W/m² | - |
| 1788584404 | 26.11° C | 23% | 1018.2 hPa | 0 mm | - | 0 W/m² | - |
| 1788583804 | 25.56° C | 23% | 1018.4 hPa | 0 mm | - | 0 W/m² | - |
| 1788583205 | 25.56° C | 23% | 1018.3 hPa | 0 mm | - | 0 W/m² | - |
| 1788582605 | 26.11° C | 23% | 1018.1 hPa | 0 mm | - | 0 W/m² | - |
| 1788582004 | 26.11° C | 23% | 1018.1 hPa | 0 mm | - | 0 W/m² | - |
| 1788581404 | 25.56° C | 24% | 1018.3 hPa | 0 mm | - | 0 W/m² | - |
| 1788580804 | 24.44° C | 29% | 1019.1 hPa | 0 mm | - | 0 W/m² | - |
| 1788580205 | 20.56° C | 39% | 1021.1 hPa | 0 mm | - | 0 W/m² | - |
| 1788579605 | 18.89° C | 45% | 1022.1 hPa | 0 mm | - | 0 W/m² | - |
| 1788579004 | 18.89° C | 43% | 1022.3 hPa | 0 mm | - | 0 W/m² | - |
| 1788578404 | 20° C | 42% | 1021.8 hPa | 0 mm | - | 0 W/m² | - |
| 1788577805 | 20.56° C | 39% | 1021.4 hPa | 0 mm | - | 0 W/m² | - |
| 1788577204 | 20.56° C | 38% | 1021.2 hPa | 0 mm | - | 0 W/m² | - |
| 1788576604 | 20° C | 41% | 1021.3 hPa | 0 mm | - | 0 W/m² | - |
| 1788576004 | 20.56° C | 40% | 1021 hPa | 0 mm | - | 0 W/m² | - |
| 1788575404 | 21.11° C | 38% | 1020.5 hPa | 0 mm | - | 0 W/m² | - |
| 1788574804 | 22.78° C | 33% | 1019.3 hPa | 0 mm | - | 0 W/m² | - |
| 1788574204 | 23.89° C | 29% | 1019.1 hPa | 0 mm | - | 0 W/m² | - |
| 1788573604 | 23.33° C | 30% | 1018.9 hPa | 0 mm | - | 1 W/m² | - |
| 1788573004 | 23.89° C | 32% | 1019 hPa | 0 mm | - | 4 W/m² | - |
| 1788572404 | 24.44° C | 29% | 1018.4 hPa | 0 mm | - | 9 W/m² | - |
| 1788571804 | 26.11° C | 27% | 1017.8 hPa | 0 mm | - | 17 W/m² | - |
| 1788571204 | 27.22° C | 25% | 1016.9 hPa | 0 mm | - | 26 W/m² | - |
| 1788570634 | 27.78° C | 25% | 1016.8 hPa | 0 mm | - | 31 W/m² | - |
* Rain latest hour (hover to see other rain measurements)
** Current wind speed in m/s (hover to see current wind gust speed)